Time;durP1;ratioP1;P1;durP2;ratioP2;P2;SDS_P1;SDS_P2;PMS_P1;PMS_P2;Temp;Humidity;BMP_temperature;BMP_pressure;BME280_temperature;BME280_humidity;BME280_pressure;Samples;Min_cycle;Max_cycle;Signal;HPM_P1;HPM_P2
2023/10/10 00:01:39;;;;;;;13.67;7.30;;;;;;;;;;5071387;28;20191;-79
2023/10/10 00:04:06;;;;;;;13.13;6.93;;;;;;;;;;5071752;28;20227;-80
2023/10/10 00:06:38;;;;;;;12.10;7.07;;;;;;;;;;5071019;28;20569;-80
2023/10/10 00:09:06;;;;;;;11.93;7.63;;;;;;;;;;5071357;28;20231;-79
2023/10/10 00:11:35;;;;;;;13.67;7.80;;;;;;;;;;5071205;28;20191;-80
2023/10/10 00:14:06;;;;;;;13.63;7.57;;;;;;;;;;5071612;28;20221;-80
2023/10/10 00:16:37;;;;;;;13.13;8.00;;;;;;;;;;5071292;28;20199;-80
2023/10/10 00:19:17;;;;;;;15.97;9.13;;;;;;;;;;5071295;28;20207;-80
2023/10/10 00:21:44;;;;;;;20.37;9.83;;;;;;;;;;5071418;28;20198;-80
2023/10/10 00:24:12;;;;;;;16.17;10.33;;;;;;;;;;5071384;28;20356;-80
2023/10/10 00:26:42;;;;;;;19.03;10.50;;;;;;;;;;5071351;28;20191;-79
2023/10/10 00:29:13;;;;;;;16.63;9.87;;;;;;;;;;5071053;28;20195;-80
2023/10/10 00:31:43;;;;;;;15.17;9.47;;;;;;;;;;5071471;28;20202;-79
2023/10/10 00:34:10;;;;;;;16.97;9.30;;;;;;;;;;5071143;28;20206;-79
2023/10/10 00:36:40;;;;;;;17.53;10.30;;;;;;;;;;5070962;28;20207;-79
2023/10/10 00:39:21;;;;;;;16.97;9.53;;;;;;;;;;5071146;28;20203;-79
2023/10/10 00:41:53;;;;;;;15.87;9.13;;;;;;;;;;5071056;28;20624;-80
2023/10/10 00:44:25;;;;;;;15.43;8.87;;;;;;;;;;5071164;28;20234;-80
2023/10/10 00:46:55;;;;;;;11.63;7.80;;;;;;;;;;5070879;28;20541;-80
2023/10/10 00:49:23;;;;;;;14.60;7.97;;;;;;;;;;5070842;28;20258;-80
2023/10/10 00:51:53;;;;;;;13.90;8.00;;;;;;;;;;5070770;28;20203;-79
2023/10/10 00:54:30;;;;;;;12.90;7.57;;;;;;;;;;5071424;28;20203;-79
2023/10/10 00:56:59;;;;;;;15.13;8.83;;;;;;;;;;5070790;28;20256;-80
2023/10/10 00:59:29;;;;;;;17.20;9.03;;;;;;;;;;5071287;28;20195;-79
2023/10/10 01:01:56;;;;;;;13.17;8.20;;;;;;;;;;5071084;28;20195;-79
2023/10/10 01:04:35;;;;;;;14.70;8.30;;;;;;;;;;5070289;28;20725;-79
2023/10/10 01:07:07;;;;;;;16.53;7.90;;;;;;;;;;5071208;28;20585;-79
2023/10/10 01:09:34;;;;;;;16.90;7.93;;;;;;;;;;5070837;28;20195;-80
2023/10/10 01:12:04;;;;;;;16.00;8.20;;;;;;;;;;5070904;28;20203;-79
2023/10/10 01:14:33;;;;;;;14.60;7.43;;;;;;;;;;5070793;28;20217;-80
2023/10/10 01:17:01;;;;;;;13.53;7.00;;;;;;;;;;5070953;28;20248;-80
2023/10/10 01:19:29;;;;;;;11.40;7.17;;;;;;;;;;5070440;28;20555;-79
2023/10/10 01:21:58;;;;;;;12.33;7.10;;;;;;;;;;5071429;28;20744;-79
2023/10/10 01:24:26;;;;;;;10.20;6.30;;;;;;;;;;5070678;28;20223;-78
2023/10/10 01:27:02;;;;;;;12.73;7.00;;;;;;;;;;5070733;28;20195;-78
2023/10/10 01:29:40;;;;;;;11.80;6.83;;;;;;;;;;5071239;28;20194;-80
2023/10/10 01:32:10;;;;;;;10.73;6.00;;;;;;;;;;5074226;28;20206;-79
2023/10/10 01:34:43;;;;;;;11.87;6.73;;;;;;;;;;5074350;28;20192;-79
2023/10/10 01:37:20;;;;;;;12.40;6.23;;;;;;;;;;5074227;28;20617;-80
2023/10/10 01:39:54;;;;;;;10.57;6.40;;;;;;;;;;5074452;28;20207;-80
2023/10/10 01:42:31;;;;;;;12.03;6.57;;;;;;;;;;5074176;28;20265;-80
2023/10/10 01:45:02;;;;;;;14.33;7.40;;;;;;;;;;5074310;28;20233;-80
2023/10/10 01:47:34;;;;;;;13.10;7.53;;;;;;;;;;5074079;28;20199;-79
2023/10/10 01:50:02;;;;;;;14.53;7.50;;;;;;;;;;5073669;28;20285;-79
2023/10/10 01:52:31;;;;;;;12.87;7.30;;;;;;;;;;5074020;28;20203;-79
2023/10/10 01:55:00;;;;;;;13.23;7.47;;;;;;;;;;5073948;28;20202;-79
2023/10/10 01:57:27;;;;;;;11.03;6.73;;;;;;;;;;5074294;28;20195;-79
2023/10/10 01:59:57;;;;;;;13.13;6.93;;;;;;;;;;5074114;28;20230;-79
2023/10/10 02:02:26;;;;;;;13.70;7.00;;;;;;;;;;5073683;28;20206;-80
2023/10/10 02:04:56;;;;;;;11.67;7.23;;;;;;;;;;5073843;28;20226;-79
2023/10/10 02:07:31;;;;;;;15.13;7.07;;;;;;;;;;5073620;28;20309;-80
2023/10/10 02:10:13;;;;;;;11.77;6.50;;;;;;;;;;5074008;28;20191;-79
2023/10/10 02:12:44;;;;;;;12.83;6.80;;;;;;;;;;5074145;28;20202;-79
2023/10/10 02:15:16;;;;;;;11.97;7.27;;;;;;;;;;5073560;28;20210;-79
2023/10/10 02:17:51;;;;;;;10.10;5.93;;;;;;;;;;5072791;28;20678;-80
2023/10/10 02:20:33;;;;;;;9.63;6.10;;;;;;;;;;5073595;28;20208;-80
2023/10/10 02:23:09;;;;;;;13.17;6.60;;;;;;;;;;5073269;28;20207;-80
2023/10/10 02:25:46;;;;;;;11.07;6.13;;;;;;;;;;5073173;28;20850;-79
2023/10/10 02:28:20;;;;;;;12.63;6.60;;;;;;;;;;5073659;28;20202;-80
2023/10/10 02:30:51;;;;;;;10.43;6.13;;;;;;;;;;5073818;28;20256;-80
2023/10/10 02:33:30;;;;;;;10.83;5.97;;;;;;;;;;5073237;28;20195;-80
2023/10/10 02:35:57;;;;;;;12.87;6.77;;;;;;;;;;5073384;28;20301;-79
2023/10/10 02:38:31;;;;;;;11.00;6.80;;;;;;;;;;5073212;28;20205;-80
2023/10/10 02:41:14;;;;;;;11.37;5.90;;;;;;;;;;5072956;28;20283;-80
2023/10/10 02:43:54;;;;;;;10.43;6.60;;;;;;;;;;5072978;28;20313;-80
2023/10/10 02:46:33;;;;;;;9.30;6.00;;;;;;;;;;5072712;28;20264;-79
2023/10/10 02:49:09;;;;;;;11.47;6.07;;;;;;;;;;5072884;28;20977;-80
2023/10/10 02:51:36;;;;;;;9.83;6.40;;;;;;;;;;5073308;28;20199;-80
2023/10/10 02:54:19;;;;;;;10.27;6.60;;;;;;;;;;5072867;28;20290;-80
2023/10/10 02:56:48;;;;;;;11.03;6.40;;;;;;;;;;5072946;28;20197;-79
2023/10/10 02:59:21;;;;;;;12.13;6.83;;;;;;;;;;5072726;28;20245;-79
2023/10/10 03:01:57;;;;;;;12.83;7.07;;;;;;;;;;5072622;28;20201;-80
2023/10/10 03:04:52;;;;;;;11.67;6.83;;;;;;;;;;5072547;28;20253;-79
2023/10/10 03:07:20;;;;;;;11.13;6.63;;;;;;;;;;5072538;28;20248;-80
2023/10/10 03:12:31;;;;;;;11.47;6.63;;;;;;;;;;5071793;28;20199;-79
2023/10/10 03:15:12;;;;;;;10.93;6.70;;;;;;;;;;5071908;28;20260;-79
2023/10/10 03:17:48;;;;;;;10.43;6.30;;;;;;;;;;5072037;28;20201;-80
2023/10/10 03:20:25;;;;;;;11.77;6.50;;;;;;;;;;5072132;28;20561;-80
2023/10/10 03:23:09;;;;;;;12.37;6.27;;;;;;;;;;5072350;28;20197;-80
2023/10/10 03:25:45;;;;;;;12.13;7.23;;;;;;;;;;5071992;28;20227;-79
2023/10/10 03:28:21;;;;;;;12.87;6.87;;;;;;;;;;5072452;28;20206;-79
2023/10/10 03:30:51;;;;;;;10.40;6.40;;;;;;;;;;5071446;28;20202;-79
2023/10/10 03:33:29;;;;;;;12.77;7.37;;;;;;;;;;5072307;28;20236;-79
2023/10/10 03:36:00;;;;;;;11.00;7.33;;;;;;;;;;5072208;28;20199;-79
2023/10/10 03:38:44;;;;;;;15.47;7.67;;;;;;;;;;5071994;28;20204;-79
2023/10/10 03:41:26;;;;;;;12.57;6.83;;;;;;;;;;5072025;28;20195;-79
2023/10/10 05:25:41;;;;;;;10.97;5.83;;;;;;;;;;5073992;28;20300;-79
2023/10/10 05:28:09;;;;;;;10.30;5.70;;;;;;;;;;5074320;28;20199;-79
2023/10/10 05:30:44;;;;;;;12.37;6.00;;;;;;;;;;5073355;28;20730;-79
2023/10/10 05:33:12;;;;;;;8.07;5.40;;;;;;;;;;5074686;28;20218;-80
2023/10/10 05:35:43;;;;;;;8.23;5.80;;;;;;;;;;5072644;28;20231;-80
2023/10/10 05:38:12;;;;;;;10.40;5.83;;;;;;;;;;5073716;28;20195;-80
2023/10/10 05:40:39;;;;;;;10.50;5.87;;;;;;;;;;5073073;28;20231;-79
2023/10/10 05:43:09;;;;;;;9.10;5.40;;;;;;;;;;5073383;28;20260;-78
2023/10/10 05:45:37;;;;;;;10.10;5.53;;;;;;;;;;5081894;28;20291;-79
2023/10/10 05:48:05;;;;;;;11.60;6.70;;;;;;;;;;5072634;28;20202;-79
2023/10/10 05:50:33;;;;;;;11.77;6.07;;;;;;;;;;5068628;28;20643;-78
2023/10/10 05:53:00;;;;;;;9.67;5.83;;;;;;;;;;5053398;28;20295;-79
2023/10/10 05:55:33;;;;;;;10.73;5.77;;;;;;;;;;5053365;28;20759;-77
2023/10/10 05:58:02;;;;;;;11.10;6.43;;;;;;;;;;5054199;28;20202;-78
2023/10/10 06:00:32;;;;;;;10.13;5.50;;;;;;;;;;5054306;28;20207;-78
2023/10/10 06:03:00;;;;;;;10.37;5.77;;;;;;;;;;5053722;28;20227;-78
2023/10/10 06:05:29;;;;;;;9.93;5.97;;;;;;;;;;5053574;28;20199;-78
2023/10/10 06:07:58;;;;;;;11.63;6.00;;;;;;;;;;5054035;28;20295;-78
2023/10/10 06:10:31;;;;;;;11.93;6.03;;;;;;;;;;5053442;28;20207;-78
2023/10/10 06:13:03;;;;;;;11.87;6.40;;;;;;;;;;5053555;28;20197;-78
2023/10/10 06:15:33;;;;;;;13.87;6.00;;;;;;;;;;5053358;28;20224;-78
2023/10/10 06:18:08;;;;;;;10.70;5.53;;;;;;;;;;5057739;28;20220;-78
2023/10/10 06:20:40;;;;;;;15.57;6.17;;;;;;;;;;5073832;28;20199;-79
2023/10/10 06:23:08;;;;;;;8.93;5.10;;;;;;;;;;5073606;28;20203;-79
2023/10/10 06:25:35;;;;;;;11.23;6.10;;;;;;;;;;5073543;28;20195;-78
2023/10/10 06:28:05;;;;;;;11.13;5.50;;;;;;;;;;5073885;28;20260;-77
2023/10/10 06:30:37;;;;;;;11.50;5.80;;;;;;;;;;5073937;28;20571;-78
2023/10/10 06:33:15;;;;;;;11.47;5.67;;;;;;;;;;5073399;28;20196;-77
2023/10/10 06:35:52;;;;;;;8.57;5.07;;;;;;;;;;5073044;28;20235;-78
2023/10/10 06:38:24;;;;;;;9.80;5.63;;;;;;;;;;5072943;28;20202;-78
2023/10/10 06:40:55;;;;;;;8.60;5.97;;;;;;;;;;5073237;28;20295;-77
2023/10/10 06:43:24;;;;;;;8.67;5.70;;;;;;;;;;5073497;28;20193;-79
2023/10/10 06:45:54;;;;;;;9.50;5.40;;;;;;;;;;5073278;28;20207;-78
2023/10/10 06:48:22;;;;;;;9.07;5.93;;;;;;;;;;5072718;28;20270;-78
2023/10/10 06:50:50;;;;;;;8.63;5.80;;;;;;;;;;5072662;28;20231;-78
2023/10/10 06:53:34;;;;;;;10.77;6.00;;;;;;;;;;5072707;28;20241;-78
2023/10/10 06:56:14;;;;;;;10.83;6.10;;;;;;;;;;5073510;28;20675;-77
2023/10/10 06:58:44;;;;;;;8.97;5.97;;;;;;;;;;5072827;28;20209;-79
2023/10/10 07:01:12;;;;;;;13.03;6.63;;;;;;;;;;5072790;28;20726;-78
2023/10/10 07:03:46;;;;;;;9.53;6.00;;;;;;;;;;5072792;28;20299;-78
2023/10/10 07:06:13;;;;;;;11.50;6.27;;;;;;;;;;5073142;28;20210;-78
2023/10/10 07:08:41;;;;;;;12.87;5.93;;;;;;;;;;5072457;28;20202;-79
2023/10/10 07:11:10;;;;;;;11.17;6.13;;;;;;;;;;5071547;28;20207;-78
2023/10/10 07:13:43;;;;;;;8.63;5.43;;;;;;;;;;5072570;28;20282;-78
2023/10/10 07:16:16;;;;;;;11.13;5.93;;;;;;;;;;5072417;28;20223;-79
2023/10/10 07:18:44;;;;;;;8.63;5.70;;;;;;;;;;5072093;28;20294;-79
2023/10/10 07:21:30;;;;;;;10.70;6.47;;;;;;;;;;5072039;28;20226;-80
2023/10/10 07:24:13;;;;;;;11.83;5.90;;;;;;;;;;5072467;28;20199;-79
2023/10/10 07:26:42;;;;;;;11.20;6.30;;;;;;;;;;5072213;28;20560;-79
2023/10/10 07:29:27;;;;;;;9.73;5.87;;;;;;;;;;5071520;28;20202;-79
2023/10/10 07:32:04;;;;;;;9.80;6.00;;;;;;;;;;5072231;28;20195;-79
2023/10/10 07:34:38;;;;;;;7.23;5.43;;;;;;;;;;5071789;28;20229;-80
2023/10/10 07:37:08;;;;;;;11.77;5.88;;;;;;;;;;5071697;28;20295;-79
2023/10/10 07:39:36;;;;;;;9.70;5.55;;;;;;;;;;5072376;28;20199;-80
2023/10/10 07:42:08;;;;;;;11.32;5.70;;;;;;;;;;5072373;28;20195;-79
2023/10/10 07:44:36;;;;;;;9.70;5.65;;;;;;;;;;5072077;28;20237;-80
2023/10/10 07:47:19;;;;;;;8.88;5.57;;;;;;;;;;5071563;28;20249;-79
2023/10/10 07:49:50;;;;;;;13.40;6.85;;;;;;;;;;5071431;28;20227;-80
2023/10/10 07:52:20;;;;;;;9.80;6.30;;;;;;;;;;5071666;28;20195;-80
2023/10/10 07:54:51;;;;;;;9.63;5.25;;;;;;;;;;5071393;28;20227;-81
2023/10/10 07:57:22;;;;;;;10.10;6.50;;;;;;;;;;5072003;28;20199;-79
2023/10/10 07:59:49;;;;;;;10.48;6.03;;;;;;;;;;5071916;28;20209;-80
2023/10/10 08:02:24;;;;;;;11.88;6.93;;;;;;;;;;5071867;28;20252;-80
2023/10/10 08:04:52;;;;;;;10.85;6.72;;;;;;;;;;5071464;28;20645;-80
2023/10/10 08:07:19;;;;;;;16.98;7.22;;;;;;;;;;5071838;28;20230;-80
2023/10/10 08:09:48;;;;;;;12.00;7.53;;;;;;;;;;5071754;28;20203;-80
2023/10/10 08:12:15;;;;;;;12.07;7.45;;;;;;;;;;5071589;28;20195;-80
2023/10/10 08:14:42;;;;;;;10.00;7.18;;;;;;;;;;5071671;28;20219;-80
2023/10/10 08:17:19;;;;;;;14.10;7.35;;;;;;;;;;5071553;28;20293;-81
2023/10/10 08:19:51;;;;;;;14.57;7.05;;;;;;;;;;5071161;28;20214;-80
2023/10/10 08:22:25;;;;;;;11.75;7.07;;;;;;;;;;5071417;28;20211;-80
2023/10/10 08:24:52;;;;;;;11.65;6.93;;;;;;;;;;5071464;28;20205;-80
2023/10/10 08:27:22;;;;;;;13.65;7.07;;;;;;;;;;5071472;28;20238;-81
2023/10/10 08:29:50;;;;;;;11.52;6.97;;;;;;;;;;5071575;28;20198;-80
2023/10/10 08:32:17;;;;;;;11.45;7.25;;;;;;;;;;5071430;28;20199;-81
2023/10/10 08:34:44;;;;;;;9.52;7.15;;;;;;;;;;5070728;28;20234;-82
2023/10/10 08:37:15;;;;;;;12.30;7.13;;;;;;;;;;5072023;28;20365;-82
2023/10/10 08:39:42;;;;;;;13.65;7.47;;;;;;;;;;5071030;28;20195;-81
2023/10/10 08:42:10;;;;;;;12.35;7.50;;;;;;;;;;5071475;28;20298;-81
2023/10/10 08:44:39;;;;;;;12.82;7.30;;;;;;;;;;5071735;28;20191;-81
2023/10/10 08:47:07;;;;;;;13.80;8.15;;;;;;;;;;5071137;28;20223;-81
2023/10/10 08:49:35;;;;;;;11.63;7.40;;;;;;;;;;5070898;28;20368;-80
2023/10/10 08:52:03;;;;;;;13.93;7.82;;;;;;;;;;5071474;28;20298;-81
2023/10/10 08:54:33;;;;;;;10.68;7.78;;;;;;;;;;5071115;28;20287;-81
2023/10/10 08:57:00;;;;;;;11.98;8.57;;;;;;;;;;5070903;28;20822;-81
2023/10/10 08:59:28;;;;;;;13.30;7.60;;;;;;;;;;5071177;28;20199;-82
2023/10/10 09:01:56;;;;;;;11.93;8.07;;;;;;;;;;5071361;28;20230;-82
2023/10/10 09:04:30;;;;;;;11.40;7.68;;;;;;;;;;5070963;28;20201;-81
2023/10/10 09:07:00;;;;;;;12.90;7.13;;;;;;;;;;5070960;28;20202;-79
2023/10/10 09:09:34;;;;;;;11.50;7.03;;;;;;;;;;5071196;28;20199;-79
2023/10/10 09:12:03;;;;;;;12.65;6.90;;;;;;;;;;5070927;28;20199;-79
2023/10/10 09:14:39;;;;;;;10.13;7.20;;;;;;;;;;5071118;28;20195;-80
2023/10/10 09:17:08;;;;;;;12.68;7.00;;;;;;;;;;5070629;28;20230;-82
2023/10/10 09:19:37;;;;;;;12.30;6.70;;;;;;;;;;5070813;28;20210;-81
2023/10/10 09:22:12;;;;;;;9.50;5.60;;;;;;;;;;5071171;28;20282;-82
2023/10/10 09:24:41;;;;;;;11.73;6.28;;;;;;;;;;5071221;28;20206;-81
2023/10/10 09:27:23;;;;;;;10.25;6.43;;;;;;;;;;5070757;28;20253;-82
2023/10/10 09:29:54;;;;;;;9.52;7.05;;;;;;;;;;5070804;28;20631;-81
2023/10/10 09:32:28;;;;;;;11.52;6.68;;;;;;;;;;5070517;28;20246;-82
2023/10/10 09:34:57;;;;;;;9.77;6.47;;;;;;;;;;5070704;28;20202;-82
2023/10/10 09:37:30;;;;;;;9.73;5.78;;;;;;;;;;5071050;28;20195;-82
2023/10/10 09:39:59;;;;;;;9.50;5.90;;;;;;;;;;5070837;28;20199;-82
2023/10/10 09:42:44;;;;;;;10.57;6.53;;;;;;;;;;5071289;28;20620;-82
2023/10/10 09:45:27;;;;;;;8.00;6.15;;;;;;;;;;5069318;28;20210;-82
2023/10/10 09:47:56;;;;;;;8.23;6.30;;;;;;;;;;5070179;28;20198;-83
2023/10/10 09:50:35;;;;;;;8.63;5.85;;;;;;;;;;5070634;28;20231;-82
2023/10/10 09:53:02;;;;;;;10.05;6.10;;;;;;;;;;5074484;28;20282;-82
2023/10/10 09:55:42;;;;;;;9.05;6.45;;;;;;;;;;5072771;28;20737;-82
2023/10/10 09:58:26;;;;;;;8.80;6.78;;;;;;;;;;5074056;28;20592;-83
2023/10/10 10:01:03;;;;;;;11.10;6.95;;;;;;;;;;5073913;28;20750;-82
2023/10/10 10:03:40;;;;;;;11.18;6.15;;;;;;;;;;5073841;28;20195;-82
2023/10/10 10:06:34;;;;;;;11.02;5.40;;;;;;;;;;5073937;28;20202;-82
2023/10/10 10:09:17;;;;;;;9.13;5.20;;;;;;;;;;5073939;28;20195;-83
2023/10/10 10:11:51;;;;;;;7.25;5.18;;;;;;;;;;5074116;28;20195;-82
2023/10/10 10:14:26;;;;;;;9.07;5.30;;;;;;;;;;5074253;28;20252;-83
2023/10/10 10:16:58;;;;;;;7.30;4.97;;;;;;;;;;5073246;28;20317;-82
2023/10/10 10:19:28;;;;;;;8.25;5.22;;;;;;;;;;5073667;28;20615;-82
2023/10/10 10:22:08;;;;;;;7.57;5.07;;;;;;;;;;5073760;28;20207;-82
2023/10/10 10:24:52;;;;;;;10.70;4.65;;;;;;;;;;5073487;28;20195;-83
2023/10/10 10:27:24;;;;;;;6.90;4.88;;;;;;;;;;5073724;28;20203;-82
2023/10/10 10:30:07;;;;;;;7.60;4.90;;;;;;;;;;5072807;28;20199;-83
2023/10/10 10:32:35;;;;;;;9.02;5.80;;;;;;;;;;5073804;28;20202;-83
2023/10/10 10:35:08;;;;;;;10.30;5.60;;;;;;;;;;5073237;28;20231;-83
2023/10/10 10:37:39;;;;;;;7.00;4.82;;;;;;;;;;5073277;28;20217;-83
2023/10/10 10:40:23;;;;;;;10.25;5.13;;;;;;;;;;5073436;28;20202;-82
2023/10/10 10:42:51;;;;;;;8.55;4.70;;;;;;;;;;5072810;28;20231;-82
2023/10/10 10:45:33;;;;;;;9.52;4.53;;;;;;;;;;5072978;28;20201;-83
2023/10/10 10:48:01;;;;;;;8.55;5.07;;;;;;;;;;5073168;28;20204;-83
2023/10/10 10:50:42;;;;;;;7.57;4.90;;;;;;;;;;5072996;28;20338;-83
2023/10/10 10:53:20;;;;;;;10.95;4.32;;;;;;;;;;5072781;28;20234;-82
2023/10/10 10:56:06;;;;;;;9.82;4.55;;;;;;;;;;5073480;28;20264;-83
2023/10/10 10:58:32;;;;;;;5.70;4.47;;;;;;;;;;5073112;28;20205;-83
2023/10/10 11:01:08;;;;;;;7.03;4.43;;;;;;;;;;5072676;28;20254;-83
2023/10/10 11:03:38;;;;;;;5.45;3.60;;;;;;;;;;5073115;28;20286;-83
2023/10/10 11:06:07;;;;;;;6.10;3.95;;;;;;;;;;5072729;28;20777;-82
2023/10/10 11:11:27;;;;;;;7.38;3.90;;;;;;;;;;5070391;28;20217;-82
2023/10/10 11:13:54;;;;;;;7.80;4.50;;;;;;;;;;5072367;28;20191;-82
2023/10/10 11:16:29;;;;;;;6.63;4.07;;;;;;;;;;5072751;28;20195;-83
2023/10/10 11:18:58;;;;;;;6.57;4.53;;;;;;;;;;5072399;28;20252;-82
2023/10/10 11:21:30;;;;;;;6.43;3.90;;;;;;;;;;5073114;28;20199;-82
2023/10/10 11:23:59;;;;;;;8.80;3.83;;;;;;;;;;5072563;28;20294;-82
2023/10/10 11:26:35;;;;;;;7.82;3.83;;;;;;;;;;5072087;28;20321;-82
2023/10/10 11:29:02;;;;;;;9.68;3.63;;;;;;;;;;5071905;28;20191;-82
2023/10/10 11:31:47;;;;;;;6.53;3.78;;;;;;;;;;5072271;28;20230;-83
2023/10/10 11:34:26;;;;;;;7.78;3.97;;;;;;;;;;5072227;28;20198;-82
2023/10/10 11:37:08;;;;;;;5.93;3.50;;;;;;;;;;5072378;28;20284;-82
2023/10/10 11:39:35;;;;;;;5.47;3.90;;;;;;;;;;5072036;28;20260;-82
2023/10/10 11:42:05;;;;;;;6.68;3.60;;;;;;;;;;5072073;28;20226;-82
2023/10/10 11:44:33;;;;;;;5.82;3.50;;;;;;;;;;5071613;28;20674;-82
2023/10/10 11:47:07;;;;;;;5.68;3.20;;;;;;;;;;5072422;28;20227;-82
2023/10/10 11:49:34;;;;;;;5.63;3.53;;;;;;;;;;5071642;28;20321;-82
2023/10/10 11:52:01;;;;;;;5.78;3.60;;;;;;;;;;5071164;28;20632;-82
2023/10/10 11:54:29;;;;;;;5.25;3.40;;;;;;;;;;5054277;28;20191;-83
2023/10/10 11:56:56;;;;;;;6.57;3.80;;;;;;;;;;5071436;28;20191;-82
2023/10/10 11:59:24;;;;;;;5.18;3.38;;;;;;;;;;5071877;28;20217;-82
2023/10/10 12:01:54;;;;;;;5.20;3.10;;;;;;;;;;5071836;28;20251;-82
2023/10/10 12:04:31;;;;;;;8.10;3.28;;;;;;;;;;5071861;28;20202;-83
2023/10/10 12:06:59;;;;;;;7.60;3.22;;;;;;;;;;5071389;28;20237;-82
2023/10/10 12:09:27;;;;;;;8.38;3.25;;;;;;;;;;5071912;28;20281;-82
2023/10/10 12:11:58;;;;;;;10.57;3.35;;;;;;;;;;5071846;28;20249;-82
2023/10/10 12:14:29;;;;;;;7.93;2.83;;;;;;;;;;5071157;28;20203;-82
2023/10/10 12:16:58;;;;;;;9.35;3.20;;;;;;;;;;5071579;28;20290;-82
2023/10/10 12:19:28;;;;;;;6.57;3.10;;;;;;;;;;5071622;28;20292;-82
2023/10/10 12:22:03;;;;;;;9.63;3.30;;;;;;;;;;5071685;28;20206;-82
2023/10/10 12:24:30;;;;;;;6.28;3.45;;;;;;;;;;5071562;28;20194;-82
2023/10/10 12:26:57;;;;;;;6.25;2.95;;;;;;;;;;5071133;28;20254;-82
2023/10/10 12:29:25;;;;;;;4.53;2.80;;;;;;;;;;5071406;28;20287;-82
2023/10/10 12:31:55;;;;;;;4.15;3.20;;;;;;;;;;5071546;28;20301;-82
2023/10/10 12:34:23;;;;;;;5.07;3.33;;;;;;;;;;5071709;28;20195;-82
2023/10/10 12:36:59;;;;;;;4.05;2.90;;;;;;;;;;5071546;28;20248;-82
2023/10/10 12:39:27;;;;;;;5.57;3.00;;;;;;;;;;5071133;28;20217;-82
2023/10/10 12:41:54;;;;;;;8.73;3.15;;;;;;;;;;5071247;28;20201;-82
2023/10/10 12:44:23;;;;;;;14.52;3.15;;;;;;;;;;5071235;28;20218;-82
2023/10/10 12:46:54;;;;;;;5.80;2.92;;;;;;;;;;5070980;28;20226;-82
2023/10/10 12:49:28;;;;;;;4.85;2.60;;;;;;;;;;5071449;28;20272;-82
2023/10/10 12:51:57;;;;;;;6.25;2.95;;;;;;;;;;5071444;28;20278;-83
2023/10/10 12:54:34;;;;;;;10.20;3.00;;;;;;;;;;5070937;28;20227;-82
2023/10/10 12:57:05;;;;;;;5.45;2.38;;;;;;;;;;5070835;28;20264;-82
2023/10/10 12:59:33;;;;;;;4.22;2.28;;;;;;;;;;5071272;28;20202;-82
2023/10/10 13:02:03;;;;;;;4.90;2.67;;;;;;;;;;5071086;28;20198;-83
2023/10/10 13:04:32;;;;;;;3.65;2.60;;;;;;;;;;5071132;28;20190;-83
2023/10/10 13:07:03;;;;;;;3.45;2.72;;;;;;;;;;5070890;28;20227;-82
2023/10/10 13:09:31;;;;;;;4.18;2.35;;;;;;;;;;5071271;28;20290;-81
2023/10/10 13:12:02;;;;;;;5.35;2.60;;;;;;;;;;5071406;28;20191;-82
2023/10/10 13:14:32;;;;;;;4.80;2.70;;;;;;;;;;5071205;28;20283;-83
2023/10/10 13:19:43;;;;;;;8.13;2.70;;;;;;;;;;5070618;28;20211;-82
2023/10/10 13:22:20;;;;;;;4.88;2.50;;;;;;;;;;5071344;28;20202;-82
2023/10/10 13:24:48;;;;;;;6.72;3.00;;;;;;;;;;5070534;28;20191;-82
2023/10/10 13:27:17;;;;;;;7.95;2.75;;;;;;;;;;5074060;28;20237;-83
2023/10/10 13:29:45;;;;;;;4.47;3.20;;;;;;;;;;5074593;28;20195;-83
2023/10/10 13:32:12;;;;;;;10.32;2.97;;;;;;;;;;5074295;28;20306;-83
2023/10/10 13:34:39;;;;;;;7.95;3.53;;;;;;;;;;5074295;28;20747;-83
2023/10/10 13:37:07;;;;;;;4.15;2.70;;;;;;;;;;5074252;28;20286;-83
2023/10/10 13:39:43;;;;;;;4.93;2.72;;;;;;;;;;5074250;28;20221;-83
2023/10/10 13:42:14;;;;;;;6.82;3.05;;;;;;;;;;5074578;28;20202;-82
2023/10/10 13:44:41;;;;;;;4.45;2.90;;;;;;;;;;5074489;28;20190;-82
2023/10/10 13:47:08;;;;;;;5.20;3.13;;;;;;;;;;5074073;28;20241;-83
2023/10/10 13:49:44;;;;;;;7.32;3.03;;;;;;;;;;5074097;28;20251;-81
2023/10/10 13:52:11;;;;;;;4.00;2.85;;;;;;;;;;5074174;28;20400;-82
2023/10/10 13:54:40;;;;;;;4.97;3.30;;;;;;;;;;5074098;28;20793;-81
2023/10/10 13:57:09;;;;;;;6.65;3.10;;;;;;;;;;5074163;28;20286;-82
2023/10/10 13:59:37;;;;;;;6.00;3.15;;;;;;;;;;5074162;28;20202;-82
2023/10/10 14:02:10;;;;;;;5.15;3.00;;;;;;;;;;5074265;28;20233;-82
2023/10/10 14:04:48;;;;;;;5.80;2.78;;;;;;;;;;5073850;28;20671;-83
2023/10/10 14:07:15;;;;;;;7.53;2.88;;;;;;;;;;5073401;28;20226;-82
2023/10/10 14:09:48;;;;;;;4.50;2.97;;;;;;;;;;5074332;28;20274;-83
2023/10/10 14:12:20;;;;;;;6.07;3.00;;;;;;;;;;5073889;28;20199;-83
2023/10/10 14:14:48;;;;;;;5.10;2.42;;;;;;;;;;5074034;28;20569;-82
2023/10/10 14:17:15;;;;;;;6.88;2.80;;;;;;;;;;5074065;28;20199;-81
2023/10/10 14:19:42;;;;;;;5.45;2.90;;;;;;;;;;5073693;28;20195;-81
2023/10/10 14:22:12;;;;;;;3.80;2.50;;;;;;;;;;5073729;28;20199;-81
2023/10/10 14:24:40;;;;;;;4.32;2.75;;;;;;;;;;5073846;28;20566;-82
2023/10/10 14:27:09;;;;;;;4.28;2.78;;;;;;;;;;5073536;28;20231;-81
2023/10/10 14:29:43;;;;;;;5.57;2.58;;;;;;;;;;5073510;28;20223;-82
2023/10/10 14:32:11;;;;;;;7.80;3.00;;;;;;;;;;5073637;28;20219;-81
2023/10/10 14:34:41;;;;;;;8.50;3.00;;;;;;;;;;5072561;28;20195;-81
2023/10/10 14:37:09;;;;;;;5.38;2.85;;;;;;;;;;5071414;28;20203;-82
2023/10/10 14:39:44;;;;;;;8.32;2.90;;;;;;;;;;5072998;28;20241;-81
2023/10/10 14:42:13;;;;;;;5.00;3.00;;;;;;;;;;5072916;28;20264;-81
2023/10/10 14:44:41;;;;;;;8.73;2.83;;;;;;;;;;5073634;28;20202;-81
2023/10/10 14:47:09;;;;;;;4.93;3.08;;;;;;;;;;5072874;28;20230;-81
2023/10/10 14:49:38;;;;;;;8.43;2.92;;;;;;;;;;5072827;28;20230;-81
2023/10/10 14:52:06;;;;;;;5.47;2.47;;;;;;;;;;5072752;28;20653;-81
2023/10/10 14:54:37;;;;;;;3.33;2.83;;;;;;;;;;5073078;28;20293;-82
2023/10/10 14:57:04;;;;;;;5.07;2.60;;;;;;;;;;5073061;28;20256;-81
2023/10/10 14:59:35;;;;;;;6.30;2.80;;;;;;;;;;5072995;28;20260;-81
2023/10/10 15:02:04;;;;;;;6.18;2.80;;;;;;;;;;5073502;28;20199;-81
2023/10/10 15:04:33;;;;;;;4.85;2.70;;;;;;;;;;5072865;28;20195;-81
2023/10/10 15:07:00;;;;;;;8.13;2.83;;;;;;;;;;5072520;28;20223;-81
2023/10/10 15:09:28;;;;;;;4.72;2.80;;;;;;;;;;5072661;28;20726;-81
2023/10/10 15:11:58;;;;;;;7.50;3.08;;;;;;;;;;5072873;28;20882;-81
2023/10/10 15:14:25;;;;;;;6.38;3.00;;;;;;;;;;5072482;28;20338;-81
2023/10/10 15:16:58;;;;;;;7.07;2.90;;;;;;;;;;5072675;28;20629;-81
2023/10/10 15:19:27;;;;;;;5.82;2.72;;;;;;;;;;5072194;28;20683;-81
2023/10/10 15:21:56;;;;;;;5.28;3.10;;;;;;;;;;5071287;28;20635;-81
2023/10/10 15:24:23;;;;;;;9.45;2.85;;;;;;;;;;5072339;28;20206;-80
2023/10/10 15:26:51;;;;;;;6.22;2.70;;;;;;;;;;5072044;28;20659;-80
2023/10/10 15:29:21;;;;;;;3.50;2.63;;;;;;;;;;5072308;28;20200;-81
2023/10/10 15:31:49;;;;;;;5.82;2.92;;;;;;;;;;5072737;28;20199;-81
2023/10/10 15:34:18;;;;;;;4.50;2.70;;;;;;;;;;5071749;28;20198;-81
2023/10/10 15:36:46;;;;;;;5.22;2.53;;;;;;;;;;5068929;28;20207;-82
2023/10/10 15:39:13;;;;;;;6.25;2.78;;;;;;;;;;5070356;28;20659;-82
2023/10/10 15:41:42;;;;;;;7.70;2.80;;;;;;;;;;5087618;28;20195;-82
2023/10/10 15:44:12;;;;;;;6.93;2.90;;;;;;;;;;5089647;28;20194;-80
2023/10/10 15:46:40;;;;;;;8.93;2.83;;;;;;;;;;5053821;28;20214;-80
2023/10/10 15:49:10;;;;;;;5.45;2.70;;;;;;;;;;5051089;28;20256;-80
2023/10/10 15:51:39;;;;;;;10.10;2.78;;;;;;;;;;5051998;28;20676;-80
2023/10/10 15:54:08;;;;;;;6.63;2.53;;;;;;;;;;5051998;28;20269;-81
2023/10/10 15:56:35;;;;;;;5.13;2.78;;;;;;;;;;5069071;28;20265;-80
2023/10/10 15:59:02;;;;;;;6.93;2.85;;;;;;;;;;5071677;28;20286;-81
2023/10/10 16:01:30;;;;;;;8.00;2.70;;;;;;;;;;5070655;28;20278;-81
2023/10/10 16:03:59;;;;;;;4.00;2.58;;;;;;;;;;5071115;28;20199;-81
2023/10/10 16:06:29;;;;;;;4.15;2.70;;;;;;;;;;5070883;28;20199;-82
2023/10/10 16:08:58;;;;;;;4.85;2.53;;;;;;;;;;5069185;28;20225;-81
2023/10/10 16:11:31;;;;;;;3.83;2.55;;;;;;;;;;5073056;28;20620;-82
2023/10/10 16:13:59;;;;;;;5.53;3.00;;;;;;;;;;5073910;28;20212;-82
2023/10/10 16:16:26;;;;;;;5.00;2.58;;;;;;;;;;5091733;28;20618;-81
2023/10/10 16:18:54;;;;;;;6.35;3.03;;;;;;;;;;5074265;28;20206;-81
2023/10/10 16:21:21;;;;;;;7.80;2.90;;;;;;;;;;5051125;28;20203;-82
2023/10/10 16:23:49;;;;;;;4.90;3.20;;;;;;;;;;5051452;28;20283;-81
2023/10/10 16:26:18;;;;;;;6.28;3.00;;;;;;;;;;5050862;28;20192;-81
2023/10/10 16:28:49;;;;;;;4.35;2.60;;;;;;;;;;5050876;28;20322;-79
2023/10/10 16:31:17;;;;;;;5.97;2.53;;;;;;;;;;5080278;28;20559;-79
2023/10/10 16:33:44;;;;;;;4.50;2.40;;;;;;;;;;5090942;28;20198;-80
2023/10/10 16:36:17;;;;;;;5.10;2.92;;;;;;;;;;5074117;28;20292;-80
2023/10/10 16:38:44;;;;;;;4.68;2.67;;;;;;;;;;5071354;28;20222;-80
2023/10/10 16:41:12;;;;;;;5.20;2.97;;;;;;;;;;5066227;28;20227;-79
2023/10/10 16:43:40;;;;;;;5.63;2.97;;;;;;;;;;5070668;28;20223;-80
2023/10/10 16:46:09;;;;;;;5.57;2.65;;;;;;;;;;5071007;28;20676;-79
2023/10/10 16:48:38;;;;;;;5.70;2.40;;;;;;;;;;5070524;28;20226;-80
2023/10/10 16:51:08;;;;;;;4.57;2.70;;;;;;;;;;5070786;28;20203;-80